sensor_id;sensor_type;location;lat;lon;timestamp;P1;durP1;ratioP1;P2;durP2;ratioP2
40471;SDS011;26174;42.908;23.800;2023-03-21T00:01:31;31.88;;;14.65;;
40471;SDS011;26174;42.908;23.800;2023-03-21T00:03:57;39.22;;;15.90;;
40471;SDS011;26174;42.908;23.800;2023-03-21T00:06:22;36.38;;;16.27;;
40471;SDS011;26174;42.908;23.800;2023-03-21T00:08:48;30.05;;;16.02;;
40471;SDS011;26174;42.908;23.800;2023-03-21T00:11:13;30.85;;;15.15;;
40471;SDS011;26174;42.908;23.800;2023-03-21T00:13:39;29.05;;;15.13;;
40471;SDS011;26174;42.908;23.800;2023-03-21T00:16:09;34.53;;;15.45;;
40471;SDS011;26174;42.908;23.800;2023-03-21T00:18:39;31.10;;;14.52;;
40471;SDS011;26174;42.908;23.800;2023-03-21T00:21:10;36.35;;;16.33;;
40471;SDS011;26174;42.908;23.800;2023-03-21T00:23:39;49.08;;;17.88;;
40471;SDS011;26174;42.908;23.800;2023-03-21T00:26:05;35.55;;;17.30;;
40471;SDS011;26174;42.908;23.800;2023-03-21T00:28:34;35.67;;;17.35;;
40471;SDS011;26174;42.908;23.800;2023-03-21T00:31:01;39.65;;;17.55;;
40471;SDS011;26174;42.908;23.800;2023-03-21T00:33:27;35.22;;;16.38;;
40471;SDS011;26174;42.908;23.800;2023-03-21T00:35:53;34.10;;;17.02;;
40471;SDS011;26174;42.908;23.800;2023-03-21T00:38:19;36.42;;;17.52;;
40471;SDS011;26174;42.908;23.800;2023-03-21T00:40:45;52.00;;;20.27;;
40471;SDS011;26174;42.908;23.800;2023-03-21T00:43:11;41.30;;;18.48;;
40471;SDS011;26174;42.908;23.800;2023-03-21T00:45:38;33.72;;;18.00;;
40471;SDS011;26174;42.908;23.800;2023-03-21T00:48:04;39.97;;;18.10;;
40471;SDS011;26174;42.908;23.800;2023-03-21T00:50:30;36.20;;;17.95;;
40471;SDS011;26174;42.908;23.800;2023-03-21T00:52:56;35.97;;;17.42;;
40471;SDS011;26174;42.908;23.800;2023-03-21T00:55:22;38.85;;;17.35;;
40471;SDS011;26174;42.908;23.800;2023-03-21T00:57:48;39.60;;;18.65;;
40471;SDS011;26174;42.908;23.800;2023-03-21T01:00:13;34.50;;;17.65;;
40471;SDS011;26174;42.908;23.800;2023-03-21T01:02:40;35.40;;;18.25;;
40471;SDS011;26174;42.908;23.800;2023-03-21T01:05:21;39.25;;;18.02;;
40471;SDS011;26174;42.908;23.800;2023-03-21T01:08:16;34.80;;;18.17;;
40471;SDS011;26174;42.908;23.800;2023-03-21T01:10:43;42.35;;;20.05;;
40471;SDS011;26174;42.908;23.800;2023-03-21T01:13:11;47.28;;;20.40;;
40471;SDS011;26174;42.908;23.800;2023-03-21T01:15:42;35.05;;;18.13;;
40471;SDS011;26174;42.908;23.800;2023-03-21T01:18:11;41.25;;;18.33;;
40471;SDS011;26174;42.908;23.800;2023-03-21T01:20:41;38.47;;;17.40;;
40471;SDS011;26174;42.908;23.800;2023-03-21T01:23:08;33.45;;;16.25;;
40471;SDS011;26174;42.908;23.800;2023-03-21T01:25:34;43.17;;;17.35;;
40471;SDS011;26174;42.908;23.800;2023-03-21T01:27:59;29.83;;;15.00;;
40471;SDS011;26174;42.908;23.800;2023-03-21T01:30:25;29.45;;;14.82;;
40471;SDS011;26174;42.908;23.800;2023-03-21T01:32:51;34.00;;;15.60;;
40471;SDS011;26174;42.908;23.800;2023-03-21T01:35:16;47.55;;;22.10;;
40471;SDS011;26174;42.908;23.800;2023-03-21T01:37:42;43.33;;;19.90;;
40471;SDS011;26174;42.908;23.800;2023-03-21T01:40:09;38.95;;;17.90;;
40471;SDS011;26174;42.908;23.800;2023-03-21T01:42:37;43.25;;;19.08;;
40471;SDS011;26174;42.908;23.800;2023-03-21T01:45:05;38.05;;;18.60;;
40471;SDS011;26174;42.908;23.800;2023-03-21T01:47:51;38.13;;;17.92;;
40471;SDS011;26174;42.908;23.800;2023-03-21T01:50:16;32.35;;;16.65;;
40471;SDS011;26174;42.908;23.800;2023-03-21T01:52:46;29.17;;;15.90;;
40471;SDS011;26174;42.908;23.800;2023-03-21T01:55:14;30.60;;;15.18;;
40471;SDS011;26174;42.908;23.800;2023-03-21T01:57:45;33.45;;;15.70;;
40471;SDS011;26174;42.908;23.800;2023-03-21T02:00:13;28.38;;;14.23;;
40471;SDS011;26174;42.908;23.800;2023-03-21T02:02:40;28.48;;;13.23;;
40471;SDS011;26174;42.908;23.800;2023-03-21T02:05:42;24.38;;;12.40;;
40471;SDS011;26174;42.908;23.800;2023-03-21T02:08:06;26.85;;;13.27;;
40471;SDS011;26174;42.908;23.800;2023-03-21T02:10:32;24.63;;;13.52;;
40471;SDS011;26174;42.908;23.800;2023-03-21T02:12:59;28.75;;;13.50;;
40471;SDS011;26174;42.908;23.800;2023-03-21T02:15:34;27.17;;;13.18;;
40471;SDS011;26174;42.908;23.800;2023-03-21T02:37:45;32.38;;;13.95;;
40471;SDS011;26174;42.908;23.800;2023-03-21T02:40:16;27.50;;;13.52;;
40471;SDS011;26174;42.908;23.800;2023-03-21T02:45:33;27.63;;;13.68;;
40471;SDS011;26174;42.908;23.800;2023-03-21T02:48:11;29.92;;;14.02;;
40471;SDS011;26174;42.908;23.800;2023-03-21T02:50:41;30.67;;;15.80;;
40471;SDS011;26174;42.908;23.800;2023-03-21T02:53:09;28.52;;;13.70;;
40471;SDS011;26174;42.908;23.800;2023-03-21T02:55:36;32.15;;;14.07;;
40471;SDS011;26174;42.908;23.800;2023-03-21T02:58:06;28.63;;;14.93;;
40471;SDS011;26174;42.908;23.800;2023-03-21T03:00:34;33.60;;;14.90;;
40471;SDS011;26174;42.908;23.800;2023-03-21T03:03:00;35.50;;;14.77;;
40471;SDS011;26174;42.908;23.800;2023-03-21T03:05:29;40.65;;;17.23;;
40471;SDS011;26174;42.908;23.800;2023-03-21T03:10:28;42.05;;;21.05;;
40471;SDS011;26174;42.908;23.800;2023-03-21T03:23:40;40.40;;;17.58;;
40471;SDS011;26174;42.908;23.800;2023-03-21T03:27:09;32.97;;;16.15;;
40471;SDS011;26174;42.908;23.800;2023-03-21T03:29:08;45.78;;;18.23;;
40471;SDS011;26174;42.908;23.800;2023-03-21T03:31:38;39.78;;;18.65;;
40471;SDS011;26174;42.908;23.800;2023-03-21T03:36:56;35.55;;;16.85;;
40471;SDS011;26174;42.908;23.800;2023-03-21T03:39:29;38.78;;;18.15;;
40471;SDS011;26174;42.908;23.800;2023-03-21T03:42:20;35.67;;;18.45;;
40471;SDS011;26174;42.908;23.800;2023-03-21T03:44:46;35.83;;;17.10;;
40471;SDS011;26174;42.908;23.800;2023-03-21T03:47:15;37.28;;;17.20;;
40471;SDS011;26174;42.908;23.800;2023-03-21T03:49:47;39.85;;;20.77;;
40471;SDS011;26174;42.908;23.800;2023-03-21T03:52:25;52.47;;;22.25;;
40471;SDS011;26174;42.908;23.800;2023-03-21T03:54:55;41.28;;;20.38;;
40471;SDS011;26174;42.908;23.800;2023-03-21T03:57:22;43.25;;;20.00;;
40471;SDS011;26174;42.908;23.800;2023-03-21T03:59:50;40.42;;;20.73;;
40471;SDS011;26174;42.908;23.800;2023-03-21T04:02:15;41.97;;;20.60;;
40471;SDS011;26174;42.908;23.800;2023-03-21T04:04:41;39.67;;;19.02;;
40471;SDS011;26174;42.908;23.800;2023-03-21T04:07:06;36.95;;;18.00;;
40471;SDS011;26174;42.908;23.800;2023-03-21T04:09:33;39.70;;;19.08;;
40471;SDS011;26174;42.908;23.800;2023-03-21T04:11:58;40.13;;;18.23;;
40471;SDS011;26174;42.908;23.800;2023-03-21T04:14:24;35.97;;;16.90;;
40471;SDS011;26174;42.908;23.800;2023-03-21T04:16:50;47.78;;;21.77;;
40471;SDS011;26174;42.908;23.800;2023-03-21T04:19:16;63.45;;;26.75;;
40471;SDS011;26174;42.908;23.800;2023-03-21T04:21:42;52.95;;;25.85;;
40471;SDS011;26174;42.908;23.800;2023-03-21T04:24:10;46.58;;;22.60;;
40471;SDS011;26174;42.908;23.800;2023-03-21T04:26:38;60.22;;;23.38;;
40471;SDS011;26174;42.908;23.800;2023-03-21T04:29:04;71.90;;;26.73;;
40471;SDS011;26174;42.908;23.800;2023-03-21T04:31:30;50.55;;;21.67;;
40471;SDS011;26174;42.908;23.800;2023-03-21T04:33:58;46.47;;;21.33;;
40471;SDS011;26174;42.908;23.800;2023-03-21T04:36:27;55.03;;;24.92;;
40471;SDS011;26174;42.908;23.800;2023-03-21T04:38:55;74.00;;;27.77;;
40471;SDS011;26174;42.908;23.800;2023-03-21T04:41:25;114.38;;;43.60;;
40471;SDS011;26174;42.908;23.800;2023-03-21T04:43:51;75.32;;;29.52;;
40471;SDS011;26174;42.908;23.800;2023-03-21T04:46:17;64.78;;;28.27;;
40471;SDS011;26174;42.908;23.800;2023-03-21T04:48:43;94.15;;;35.90;;
40471;SDS011;26174;42.908;23.800;2023-03-21T04:51:08;62.20;;;26.17;;
40471;SDS011;26174;42.908;23.800;2023-03-21T04:53:34;55.70;;;25.38;;
40471;SDS011;26174;42.908;23.800;2023-03-21T04:56:00;48.78;;;21.60;;
40471;SDS011;26174;42.908;23.800;2023-03-21T04:58:25;47.50;;;21.38;;
40471;SDS011;26174;42.908;23.800;2023-03-21T05:00:51;142.88;;;55.13;;
40471;SDS011;26174;42.908;23.800;2023-03-21T05:03:17;108.60;;;45.90;;
40471;SDS011;26174;42.908;23.800;2023-03-21T05:05:46;112.07;;;47.20;;
40471;SDS011;26174;42.908;23.800;2023-03-21T05:08:12;106.65;;;49.00;;
40471;SDS011;26174;42.908;23.800;2023-03-21T05:10:38;91.07;;;39.78;;
40471;SDS011;26174;42.908;23.800;2023-03-21T05:13:03;81.68;;;33.50;;
40471;SDS011;26174;42.908;23.800;2023-03-21T05:15:29;66.57;;;22.75;;
40471;SDS011;26174;42.908;23.800;2023-03-21T05:17:55;51.40;;;20.63;;
40471;SDS011;26174;42.908;23.800;2023-03-21T05:20:22;49.30;;;19.00;;
40471;SDS011;26174;42.908;23.800;2023-03-21T05:22:49;49.30;;;16.42;;
40471;SDS011;26174;42.908;23.800;2023-03-21T05:25:16;46.55;;;17.63;;
40471;SDS011;26174;42.908;23.800;2023-03-21T05:27:45;36.95;;;15.70;;
40471;SDS011;26174;42.908;23.800;2023-03-21T05:30:18;39.33;;;17.40;;
40471;SDS011;26174;42.908;23.800;2023-03-21T05:32:44;44.38;;;18.13;;
40471;SDS011;26174;42.908;23.800;2023-03-21T05:35:10;37.85;;;17.17;;
40471;SDS011;26174;42.908;23.800;2023-03-21T05:37:35;46.70;;;17.52;;
40471;SDS011;26174;42.908;23.800;2023-03-21T05:40:02;43.30;;;18.25;;
40471;SDS011;26174;42.908;23.800;2023-03-21T05:42:30;35.17;;;17.55;;
40471;SDS011;26174;42.908;23.800;2023-03-21T05:44:56;31.08;;;16.98;;
40471;SDS011;26174;42.908;23.800;2023-03-21T05:47:22;49.15;;;19.02;;
40471;SDS011;26174;42.908;23.800;2023-03-21T05:49:47;33.58;;;16.02;;
40471;SDS011;26174;42.908;23.800;2023-03-21T05:52:14;45.70;;;18.80;;
40471;SDS011;26174;42.908;23.800;2023-03-21T05:54:40;50.15;;;23.48;;
40471;SDS011;26174;42.908;23.800;2023-03-21T05:57:05;55.00;;;24.65;;
40471;SDS011;26174;42.908;23.800;2023-03-21T05:59:31;74.30;;;28.90;;
40471;SDS011;26174;42.908;23.800;2023-03-21T06:01:57;77.95;;;30.85;;
40471;SDS011;26174;42.908;23.800;2023-03-21T06:04:22;64.18;;;27.98;;
40471;SDS011;26174;42.908;23.800;2023-03-21T06:06:48;55.25;;;23.95;;
40471;SDS011;26174;42.908;23.800;2023-03-21T06:09:14;53.55;;;23.75;;
40471;SDS011;26174;42.908;23.800;2023-03-21T06:11:42;44.63;;;21.02;;
40471;SDS011;26174;42.908;23.800;2023-03-21T06:14:09;51.35;;;22.10;;
40471;SDS011;26174;42.908;23.800;2023-03-21T06:16:35;52.15;;;21.27;;
40471;SDS011;26174;42.908;23.800;2023-03-21T06:19:00;49.05;;;22.33;;
40471;SDS011;26174;42.908;23.800;2023-03-21T06:21:26;47.90;;;19.25;;
40471;SDS011;26174;42.908;23.800;2023-03-21T06:23:51;41.90;;;19.30;;
40471;SDS011;26174;42.908;23.800;2023-03-21T06:26:18;48.67;;;20.42;;
40471;SDS011;26174;42.908;23.800;2023-03-21T06:28:47;42.22;;;16.23;;
40471;SDS011;26174;42.908;23.800;2023-03-21T06:31:13;32.72;;;17.40;;
40471;SDS011;26174;42.908;23.800;2023-03-21T06:37:01;35.92;;;17.40;;
40471;SDS011;26174;42.908;23.800;2023-03-21T06:39:28;47.67;;;20.80;;
40471;SDS011;26174;42.908;23.800;2023-03-21T06:41:55;44.00;;;21.05;;
40471;SDS011;26174;42.908;23.800;2023-03-21T06:44:21;42.25;;;20.67;;
40471;SDS011;26174;42.908;23.800;2023-03-21T06:46:48;39.88;;;19.30;;
40471;SDS011;26174;42.908;23.800;2023-03-21T06:49:14;46.88;;;22.67;;
40471;SDS011;26174;42.908;23.800;2023-03-21T06:51:40;45.05;;;23.75;;
40471;SDS011;26174;42.908;23.800;2023-03-21T06:54:05;49.22;;;23.30;;
40471;SDS011;26174;42.908;23.800;2023-03-21T06:56:31;45.97;;;26.10;;
40471;SDS011;26174;42.908;23.800;2023-03-21T06:58:56;64.50;;;25.48;;
40471;SDS011;26174;42.908;23.800;2023-03-21T07:01:22;98.70;;;48.97;;
40471;SDS011;26174;42.908;23.800;2023-03-21T07:03:48;63.08;;;34.78;;
40471;SDS011;26174;42.908;23.800;2023-03-21T07:06:14;41.45;;;20.05;;
40471;SDS011;26174;42.908;23.800;2023-03-21T07:08:40;45.80;;;23.35;;
40471;SDS011;26174;42.908;23.800;2023-03-21T07:13:51;46.38;;;25.13;;
40471;SDS011;26174;42.908;23.800;2023-03-21T07:16:17;35.65;;;18.30;;
40471;SDS011;26174;42.908;23.800;2023-03-21T07:18:43;33.85;;;18.65;;
40471;SDS011;26174;42.908;23.800;2023-03-21T07:21:08;81.55;;;37.45;;
40471;SDS011;26174;42.908;23.800;2023-03-21T07:23:34;39.38;;;20.02;;
40471;SDS011;26174;42.908;23.800;2023-03-21T07:26:01;33.33;;;17.98;;
40471;SDS011;26174;42.908;23.800;2023-03-21T07:28:26;36.25;;;17.73;;
40471;SDS011;26174;42.908;23.800;2023-03-21T07:30:53;36.60;;;17.75;;
40471;SDS011;26174;42.908;23.800;2023-03-21T07:33:23;35.40;;;17.73;;
40471;SDS011;26174;42.908;23.800;2023-03-21T07:35:50;42.25;;;19.83;;
40471;SDS011;26174;42.908;23.800;2023-03-21T07:38:17;64.50;;;31.60;;
40471;SDS011;26174;42.908;23.800;2023-03-21T07:40:43;58.92;;;30.42;;
40471;SDS011;26174;42.908;23.800;2023-03-21T07:43:09;56.38;;;29.55;;
40471;SDS011;26174;42.908;23.800;2023-03-21T07:45:35;59.67;;;30.63;;
40471;SDS011;26174;42.908;23.800;2023-03-21T07:48:00;50.97;;;28.27;;
40471;SDS011;26174;42.908;23.800;2023-03-21T07:50:26;62.63;;;28.30;;
40471;SDS011;26174;42.908;23.800;2023-03-21T07:52:51;54.33;;;27.17;;
40471;SDS011;26174;42.908;23.800;2023-03-21T07:55:19;56.25;;;26.08;;
40471;SDS011;26174;42.908;23.800;2023-03-21T07:57:44;52.88;;;29.63;;
40471;SDS011;26174;42.908;23.800;2023-03-21T08:00:11;56.58;;;25.77;;
40471;SDS011;26174;42.908;23.800;2023-03-21T08:02:37;52.97;;;23.75;;
40471;SDS011;26174;42.908;23.800;2023-03-21T08:05:03;46.70;;;24.15;;
40471;SDS011;26174;42.908;23.800;2023-03-21T08:07:29;86.47;;;38.75;;
40471;SDS011;26174;42.908;23.800;2023-03-21T08:09:55;109.90;;;49.65;;
40471;SDS011;26174;42.908;23.800;2023-03-21T08:12:20;72.97;;;37.40;;
40471;SDS011;26174;42.908;23.800;2023-03-21T08:14:46;43.85;;;22.65;;
40471;SDS011;26174;42.908;23.800;2023-03-21T08:17:12;53.88;;;24.67;;
40471;SDS011;26174;42.908;23.800;2023-03-21T08:19:37;43.17;;;24.05;;
40471;SDS011;26174;42.908;23.800;2023-03-21T08:22:03;51.95;;;27.70;;
40471;SDS011;26174;42.908;23.800;2023-03-21T08:24:31;54.60;;;25.33;;
40471;SDS011;26174;42.908;23.800;2023-03-21T08:26:58;87.75;;;47.00;;
40471;SDS011;26174;42.908;23.800;2023-03-21T08:29:25;43.92;;;23.02;;
40471;SDS011;26174;42.908;23.800;2023-03-21T08:31:51;47.05;;;24.25;;
40471;SDS011;26174;42.908;23.800;2023-03-21T08:34:16;47.25;;;24.63;;
40471;SDS011;26174;42.908;23.800;2023-03-21T08:36:43;40.28;;;21.75;;
40471;SDS011;26174;42.908;23.800;2023-03-21T08:39:09;40.72;;;19.60;;
40471;SDS011;26174;42.908;23.800;2023-03-21T08:41:35;41.00;;;20.73;;
40471;SDS011;26174;42.908;23.800;2023-03-21T08:44:02;34.45;;;18.13;;
40471;SDS011;26174;42.908;23.800;2023-03-21T08:46:29;94.03;;;48.00;;
40471;SDS011;26174;42.908;23.800;2023-03-21T08:48:55;37.75;;;24.08;;
40471;SDS011;26174;42.908;23.800;2023-03-21T08:51:20;31.42;;;14.20;;
40471;SDS011;26174;42.908;23.800;2023-03-21T08:53:46;29.45;;;14.45;;
40471;SDS011;26174;42.908;23.800;2023-03-21T08:56:14;48.55;;;24.80;;
40471;SDS011;26174;42.908;23.800;2023-03-21T08:58:40;21.15;;;12.55;;
40471;SDS011;26174;42.908;23.800;2023-03-21T09:01:06;18.58;;;11.02;;
40471;SDS011;26174;42.908;23.800;2023-03-21T09:03:35;31.80;;;12.05;;
40471;SDS011;26174;42.908;23.800;2023-03-21T09:06:03;24.10;;;10.73;;
40471;SDS011;26174;42.908;23.800;2023-03-21T09:08:29;23.52;;;10.65;;
40471;SDS011;26174;42.908;23.800;2023-03-21T09:10:55;15.70;;;9.65;;
40471;SDS011;26174;42.908;23.800;2023-03-21T09:13:21;18.08;;;9.82;;
40471;SDS011;26174;42.908;23.800;2023-03-21T09:15:47;19.60;;;10.20;;
40471;SDS011;26174;42.908;23.800;2023-03-21T09:18:13;20.83;;;10.60;;
40471;SDS011;26174;42.908;23.800;2023-03-21T09:20:46;17.02;;;9.07;;
40471;SDS011;26174;42.908;23.800;2023-03-21T09:23:12;19.40;;;9.48;;
40471;SDS011;26174;42.908;23.800;2023-03-21T09:25:39;16.85;;;8.98;;
40471;SDS011;26174;42.908;23.800;2023-03-21T09:30:53;19.83;;;9.20;;
40471;SDS011;26174;42.908;23.800;2023-03-21T09:33:22;40.55;;;11.05;;
40471;SDS011;26174;42.908;23.800;2023-03-21T09:35:49;18.00;;;9.73;;
40471;SDS011;26174;42.908;23.800;2023-03-21T09:38:15;15.23;;;8.95;;
40471;SDS011;26174;42.908;23.800;2023-03-21T09:46:09;15.88;;;8.35;;
40471;SDS011;26174;42.908;23.800;2023-03-21T09:49:02;13.43;;;8.27;;
40471;SDS011;26174;42.908;23.800;2023-03-21T09:51:43;15.90;;;8.38;;
40471;SDS011;26174;42.908;23.800;2023-03-21T09:54:12;19.73;;;11.85;;
40471;SDS011;26174;42.908;23.800;2023-03-21T09:56:43;13.63;;;8.30;;
40471;SDS011;26174;42.908;23.800;2023-03-21T09:59:09;14.70;;;7.47;;
40471;SDS011;26174;42.908;23.800;2023-03-21T10:01:43;16.55;;;7.32;;
40471;SDS011;26174;42.908;23.800;2023-03-21T10:04:11;18.35;;;5.85;;
40471;SDS011;26174;42.908;23.800;2023-03-21T10:06:39;15.70;;;6.93;;
40471;SDS011;26174;42.908;23.800;2023-03-21T10:09:14;9.77;;;6.15;;
40471;SDS011;26174;42.908;23.800;2023-03-21T10:11:55;11.30;;;7.20;;
40471;SDS011;26174;42.908;23.800;2023-03-21T10:14:35;13.95;;;6.13;;
40471;SDS011;26174;42.908;23.800;2023-03-21T10:19:35;15.45;;;7.32;;
40471;SDS011;26174;42.908;23.800;2023-03-21T10:22:00;7.40;;;5.13;;
40471;SDS011;26174;42.908;23.800;2023-03-21T10:24:26;13.30;;;6.25;;
40471;SDS011;26174;42.908;23.800;2023-03-21T10:26:53;9.05;;;4.65;;
40471;SDS011;26174;42.908;23.800;2023-03-21T10:29:19;9.10;;;4.53;;
40471;SDS011;26174;42.908;23.800;2023-03-21T10:31:48;8.13;;;5.00;;
40471;SDS011;26174;42.908;23.800;2023-03-21T10:34:19;8.70;;;5.50;;
40471;SDS011;26174;42.908;23.800;2023-03-21T10:36:52;9.40;;;5.03;;
40471;SDS011;26174;42.908;23.800;2023-03-21T10:41:56;10.00;;;4.97;;
40471;SDS011;26174;42.908;23.800;2023-03-21T10:44:22;15.85;;;6.30;;
40471;SDS011;26174;42.908;23.800;2023-03-21T10:46:57;15.45;;;7.30;;
40471;SDS011;26174;42.908;23.800;2023-03-21T10:49:29;12.80;;;7.55;;
40471;SDS011;26174;42.908;23.800;2023-03-21T10:51:56;11.27;;;4.95;;
40471;SDS011;26174;42.908;23.800;2023-03-21T10:54:25;7.53;;;4.97;;
40471;SDS011;26174;42.908;23.800;2023-03-21T10:56:57;22.73;;;8.88;;
40471;SDS011;26174;42.908;23.800;2023-03-21T10:59:41;21.08;;;10.55;;
40471;SDS011;26174;42.908;23.800;2023-03-21T11:05:04;15.88;;;6.95;;
40471;SDS011;26174;42.908;23.800;2023-03-21T11:07:31;18.55;;;7.95;;
40471;SDS011;26174;42.908;23.800;2023-03-21T11:09:58;18.50;;;7.60;;
40471;SDS011;26174;42.908;23.800;2023-03-21T11:12:35;18.75;;;7.47;;
40471;SDS011;26174;42.908;23.800;2023-03-21T11:17:52;34.00;;;11.45;;
40471;SDS011;26174;42.908;23.800;2023-03-21T11:20:19;17.13;;;8.95;;
40471;SDS011;26174;42.908;23.800;2023-03-21T11:22:45;20.42;;;9.50;;
40471;SDS011;26174;42.908;23.800;2023-03-21T11:25:23;11.25;;;5.40;;
40471;SDS011;26174;42.908;23.800;2023-03-21T11:28:04;8.98;;;5.15;;
40471;SDS011;26174;42.908;23.800;2023-03-21T11:30:31;8.38;;;5.15;;
40471;SDS011;26174;42.908;23.800;2023-03-21T11:32:57;8.75;;;4.45;;
40471;SDS011;26174;42.908;23.800;2023-03-21T11:35:29;8.88;;;4.30;;
40471;SDS011;26174;42.908;23.800;2023-03-21T11:37:57;6.88;;;4.60;;
40471;SDS011;26174;42.908;23.800;2023-03-21T11:43:02;8.63;;;4.53;;
40471;SDS011;26174;42.908;23.800;2023-03-21T11:45:33;13.75;;;5.80;;
40471;SDS011;26174;42.908;23.800;2023-03-21T11:48:00;7.25;;;4.82;;
40471;SDS011;26174;42.908;23.800;2023-03-21T11:50:47;9.35;;;4.85;;
40471;SDS011;26174;42.908;23.800;2023-03-21T12:06:37;8.55;;;4.65;;
40471;SDS011;26174;42.908;23.800;2023-03-21T12:09:16;8.80;;;4.30;;
40471;SDS011;26174;42.908;23.800;2023-03-21T12:25:40;8.40;;;4.47;;
40471;SDS011;26174;42.908;23.800;2023-03-21T12:28:14;15.02;;;5.57;;
40471;SDS011;26174;42.908;23.800;2023-03-21T12:31:28;9.07;;;5.43;;
40471;SDS011;26174;42.908;23.800;2023-03-21T12:34:26;14.20;;;5.32;;
40471;SDS011;26174;42.908;23.800;2023-03-21T12:37:08;13.20;;;5.13;;
40471;SDS011;26174;42.908;23.800;2023-03-21T12:39:58;11.70;;;4.43;;
40471;SDS011;26174;42.908;23.800;2023-03-21T12:45:40;7.28;;;4.68;;
40471;SDS011;26174;42.908;23.800;2023-03-21T12:51:06;7.97;;;5.05;;
40471;SDS011;26174;42.908;23.800;2023-03-21T12:53:43;8.38;;;4.47;;
40471;SDS011;26174;42.908;23.800;2023-03-21T12:56:30;5.70;;;4.35;;
40471;SDS011;26174;42.908;23.800;2023-03-21T13:02:04;13.93;;;5.07;;
40471;SDS011;26174;42.908;23.800;2023-03-21T13:07:25;8.30;;;4.85;;
40471;SDS011;26174;42.908;23.800;2023-03-21T13:09:52;15.10;;;5.50;;
40471;SDS011;26174;42.908;23.800;2023-03-21T13:20:36;8.43;;;4.60;;
40471;SDS011;26174;42.908;23.800;2023-03-21T13:23:12;9.05;;;5.07;;
40471;SDS011;26174;42.908;23.800;2023-03-21T13:25:40;9.00;;;4.07;;
40471;SDS011;26174;42.908;23.800;2023-03-21T13:28:17;12.10;;;4.95;;
40471;SDS011;26174;42.908;23.800;2023-03-21T13:30:45;10.68;;;5.82;;
40471;SDS011;26174;42.908;23.800;2023-03-21T13:33:13;10.27;;;5.45;;
40471;SDS011;26174;42.908;23.800;2023-03-21T13:35:42;11.65;;;5.95;;
40471;SDS011;26174;42.908;23.800;2023-03-21T13:38:19;9.70;;;5.70;;
40471;SDS011;26174;42.908;23.800;2023-03-21T13:40:58;17.20;;;8.20;;
40471;SDS011;26174;42.908;23.800;2023-03-21T13:56:55;12.43;;;6.25;;
40471;SDS011;26174;42.908;23.800;2023-03-21T13:59:38;12.55;;;7.35;;
40471;SDS011;26174;42.908;23.800;2023-03-21T14:04:58;10.68;;;5.57;;
40471;SDS011;26174;42.908;23.800;2023-03-21T14:07:45;17.23;;;8.35;;
40471;SDS011;26174;42.908;23.800;2023-03-21T14:10:19;18.70;;;10.35;;
40471;SDS011;26174;42.908;23.800;2023-03-21T14:12:47;16.48;;;5.32;;
40471;SDS011;26174;42.908;23.800;2023-03-21T14:15:23;23.73;;;9.07;;
40471;SDS011;26174;42.908;23.800;2023-03-21T14:17:58;20.13;;;10.43;;
40471;SDS011;26174;42.908;23.800;2023-03-21T14:20:29;23.20;;;9.73;;
40471;SDS011;26174;42.908;23.800;2023-03-21T14:22:56;18.48;;;9.38;;
40471;SDS011;26174;42.908;23.800;2023-03-21T14:25:22;12.05;;;5.70;;
40471;SDS011;26174;42.908;23.800;2023-03-21T14:27:53;14.55;;;6.95;;
40471;SDS011;26174;42.908;23.800;2023-03-21T14:30:24;23.70;;;8.95;;
40471;SDS011;26174;42.908;23.800;2023-03-21T14:33:52;17.63;;;6.85;;
40471;SDS011;26174;42.908;23.800;2023-03-21T14:36:13;12.10;;;6.03;;
40471;SDS011;26174;42.908;23.800;2023-03-21T14:38:41;16.27;;;6.10;;
40471;SDS011;26174;42.908;23.800;2023-03-21T14:41:21;20.75;;;5.95;;
40471;SDS011;26174;42.908;23.800;2023-03-21T14:44:01;9.45;;;5.32;;
40471;SDS011;26174;42.908;23.800;2023-03-21T14:46:39;19.83;;;6.88;;
40471;SDS011;26174;42.908;23.800;2023-03-21T14:49:23;11.68;;;5.82;;
40471;SDS011;26174;42.908;23.800;2023-03-21T14:51:52;9.90;;;5.47;;
40471;SDS011;26174;42.908;23.800;2023-03-21T14:54:19;9.38;;;5.97;;
40471;SDS011;26174;42.908;23.800;2023-03-21T14:56:49;19.95;;;7.85;;
40471;SDS011;26174;42.908;23.800;2023-03-21T14:59:18;18.55;;;7.57;;
40471;SDS011;26174;42.908;23.800;2023-03-21T15:01:45;17.55;;;7.15;;
40471;SDS011;26174;42.908;23.800;2023-03-21T15:04:11;13.07;;;6.88;;
40471;SDS011;26174;42.908;23.800;2023-03-21T15:06:52;20.05;;;8.52;;
40471;SDS011;26174;42.908;23.800;2023-03-21T15:09:21;12.57;;;7.18;;
40471;SDS011;26174;42.908;23.800;2023-03-21T15:11:52;16.80;;;8.18;;
40471;SDS011;26174;42.908;23.800;2023-03-21T15:14:20;20.75;;;8.85;;
40471;SDS011;26174;42.908;23.800;2023-03-21T15:16:49;24.52;;;10.60;;
40471;SDS011;26174;42.908;23.800;2023-03-21T15:19:16;27.42;;;10.57;;
40471;SDS011;26174;42.908;23.800;2023-03-21T15:21:44;19.08;;;9.35;;
40471;SDS011;26174;42.908;23.800;2023-03-21T15:24:14;17.90;;;7.82;;
40471;SDS011;26174;42.908;23.800;2023-03-21T15:26:58;14.52;;;7.05;;
40471;SDS011;26174;42.908;23.800;2023-03-21T15:29:31;16.05;;;8.35;;
40471;SDS011;26174;42.908;23.800;2023-03-21T15:31:58;21.10;;;9.23;;
40471;SDS011;26174;42.908;23.800;2023-03-21T15:34:28;25.67;;;11.63;;
40471;SDS011;26174;42.908;23.800;2023-03-21T15:37:00;28.15;;;12.82;;
40471;SDS011;26174;42.908;23.800;2023-03-21T15:39:29;19.45;;;9.98;;
40471;SDS011;26174;42.908;23.800;2023-03-21T15:41:56;19.52;;;11.45;;
40471;SDS011;26174;42.908;23.800;2023-03-21T15:44:22;26.85;;;11.00;;
40471;SDS011;26174;42.908;23.800;2023-03-21T15:46:50;25.80;;;14.50;;
40471;SDS011;26174;42.908;23.800;2023-03-21T15:51:56;27.05;;;12.35;;
40471;SDS011;26174;42.908;23.800;2023-03-21T15:54:41;28.98;;;12.00;;
40471;SDS011;26174;42.908;23.800;2023-03-21T15:57:22;27.83;;;13.48;;
40471;SDS011;26174;42.908;23.800;2023-03-21T16:00:02;30.42;;;15.00;;
40471;SDS011;26174;42.908;23.800;2023-03-21T16:02:36;30.50;;;13.43;;
40471;SDS011;26174;42.908;23.800;2023-03-21T16:07:51;25.20;;;11.85;;
40471;SDS011;26174;42.908;23.800;2023-03-21T16:10:25;27.20;;;12.63;;
40471;SDS011;26174;42.908;23.800;2023-03-21T16:12:55;22.52;;;12.15;;
40471;SDS011;26174;42.908;23.800;2023-03-21T16:15:22;58.45;;;24.45;;
40471;SDS011;26174;42.908;23.800;2023-03-21T16:17:50;35.30;;;17.48;;
40471;SDS011;26174;42.908;23.800;2023-03-21T16:20:21;76.20;;;29.70;;
40471;SDS011;26174;42.908;23.800;2023-03-21T16:22:47;85.25;;;37.97;;
40471;SDS011;26174;42.908;23.800;2023-03-21T16:25:13;63.78;;;28.23;;
40471;SDS011;26174;42.908;23.800;2023-03-21T16:27:39;71.13;;;29.38;;
40471;SDS011;26174;42.908;23.800;2023-03-21T16:30:06;61.80;;;25.75;;
40471;SDS011;26174;42.908;23.800;2023-03-21T16:32:32;54.17;;;22.48;;
40471;SDS011;26174;42.908;23.800;2023-03-21T16:34:58;66.30;;;28.25;;
40471;SDS011;26174;42.908;23.800;2023-03-21T16:37:25;26.27;;;13.57;;
40471;SDS011;26174;42.908;23.800;2023-03-21T16:39:51;38.70;;;15.50;;
40471;SDS011;26174;42.908;23.800;2023-03-21T16:42:16;33.88;;;12.43;;